sensor_id;sensor_type;location;lat;lon;timestamp;P1;durP1;ratioP1;P2;durP2;ratioP2
11699;SDS011;5906;51.660;6.674;2023-10-13T00:01:09;29.73;;;15.23;;
11699;SDS011;5906;51.660;6.674;2023-10-13T00:03:39;27.53;;;16.30;;
11699;SDS011;5906;51.660;6.674;2023-10-13T00:06:07;32.73;;;16.20;;
11699;SDS011;5906;51.660;6.674;2023-10-13T00:08:35;31.43;;;14.37;;
11699;SDS011;5906;51.660;6.674;2023-10-13T00:11:03;29.17;;;16.27;;
11699;SDS011;5906;51.660;6.674;2023-10-13T00:13:31;30.40;;;15.67;;
11699;SDS011;5906;51.660;6.674;2023-10-13T00:16:09;27.93;;;15.00;;
11699;SDS011;5906;51.660;6.674;2023-10-13T00:18:36;34.77;;;15.50;;
11699;SDS011;5906;51.660;6.674;2023-10-13T00:21:08;28.03;;;15.60;;
11699;SDS011;5906;51.660;6.674;2023-10-13T00:23:42;27.43;;;15.30;;
11699;SDS011;5906;51.660;6.674;2023-10-13T00:26:20;22.50;;;15.13;;
11699;SDS011;5906;51.660;6.674;2023-10-13T00:28:56;25.83;;;15.13;;
11699;SDS011;5906;51.660;6.674;2023-10-13T00:31:37;25.40;;;14.30;;
11699;SDS011;5906;51.660;6.674;2023-10-13T00:34:09;28.27;;;14.43;;
11699;SDS011;5906;51.660;6.674;2023-10-13T00:37:05;28.03;;;13.67;;
11699;SDS011;5906;51.660;6.674;2023-10-13T00:39:54;34.90;;;14.63;;
11699;SDS011;5906;51.660;6.674;2023-10-13T00:42:23;27.30;;;14.93;;
11699;SDS011;5906;51.660;6.674;2023-10-13T00:45:00;30.20;;;14.40;;
11699;SDS011;5906;51.660;6.674;2023-10-13T00:47:27;23.30;;;13.83;;
11699;SDS011;5906;51.660;6.674;2023-10-13T00:50:00;22.20;;;13.87;;
11699;SDS011;5906;51.660;6.674;2023-10-13T00:52:27;29.63;;;14.60;;
11699;SDS011;5906;51.660;6.674;2023-10-13T00:54:56;22.77;;;13.80;;
11699;SDS011;5906;51.660;6.674;2023-10-13T00:57:26;31.47;;;13.57;;
11699;SDS011;5906;51.660;6.674;2023-10-13T00:59:54;24.80;;;13.37;;
11699;SDS011;5906;51.660;6.674;2023-10-13T01:02:23;23.00;;;14.30;;
11699;SDS011;5906;51.660;6.674;2023-10-13T01:05:06;27.20;;;14.60;;
11699;SDS011;5906;51.660;6.674;2023-10-13T01:07:38;21.90;;;13.70;;
11699;SDS011;5906;51.660;6.674;2023-10-13T01:10:09;23.00;;;12.50;;
11699;SDS011;5906;51.660;6.674;2023-10-13T01:12:40;24.30;;;13.37;;
11699;SDS011;5906;51.660;6.674;2023-10-13T01:15:09;29.73;;;13.83;;
11699;SDS011;5906;51.660;6.674;2023-10-13T01:17:38;27.87;;;13.27;;
11699;SDS011;5906;51.660;6.674;2023-10-13T01:20:05;31.50;;;14.20;;
11699;SDS011;5906;51.660;6.674;2023-10-13T01:22:32;24.17;;;13.37;;
11699;SDS011;5906;51.660;6.674;2023-10-13T01:24:59;24.17;;;13.30;;
11699;SDS011;5906;51.660;6.674;2023-10-13T01:27:37;29.57;;;14.70;;
11699;SDS011;5906;51.660;6.674;2023-10-13T01:30:07;20.77;;;12.80;;
11699;SDS011;5906;51.660;6.674;2023-10-13T01:32:49;26.27;;;14.07;;
11699;SDS011;5906;51.660;6.674;2023-10-13T01:35:18;27.90;;;15.57;;
11699;SDS011;5906;51.660;6.674;2023-10-13T01:37:46;34.10;;;14.40;;
11699;SDS011;5906;51.660;6.674;2023-10-13T01:40:12;30.07;;;13.20;;
11699;SDS011;5906;51.660;6.674;2023-10-13T01:42:48;33.77;;;14.07;;
11699;SDS011;5906;51.660;6.674;2023-10-13T01:45:21;34.47;;;14.50;;
11699;SDS011;5906;51.660;6.674;2023-10-13T01:47:55;28.27;;;13.13;;
11699;SDS011;5906;51.660;6.674;2023-10-13T01:50:23;26.83;;;14.30;;
11699;SDS011;5906;51.660;6.674;2023-10-13T01:52:56;23.43;;;13.50;;
11699;SDS011;5906;51.660;6.674;2023-10-13T01:55:39;26.60;;;15.00;;
11699;SDS011;5906;51.660;6.674;2023-10-13T01:58:10;25.60;;;14.40;;
11699;SDS011;5906;51.660;6.674;2023-10-13T02:00:49;29.10;;;14.50;;
11699;SDS011;5906;51.660;6.674;2023-10-13T02:03:16;30.03;;;14.37;;
11699;SDS011;5906;51.660;6.674;2023-10-13T02:05:44;29.70;;;14.53;;
11699;SDS011;5906;51.660;6.674;2023-10-13T02:08:16;22.50;;;14.00;;
11699;SDS011;5906;51.660;6.674;2023-10-13T02:10:51;27.00;;;15.63;;
11699;SDS011;5906;51.660;6.674;2023-10-13T02:13:19;24.87;;;14.57;;
11699;SDS011;5906;51.660;6.674;2023-10-13T02:15:49;24.43;;;14.27;;
11699;SDS011;5906;51.660;6.674;2023-10-13T02:18:23;24.97;;;13.83;;
11699;SDS011;5906;51.660;6.674;2023-10-13T02:20:54;26.67;;;14.83;;
11699;SDS011;5906;51.660;6.674;2023-10-13T02:23:22;28.50;;;15.70;;
11699;SDS011;5906;51.660;6.674;2023-10-13T02:25:51;24.77;;;13.90;;
11699;SDS011;5906;51.660;6.674;2023-10-13T02:28:27;21.00;;;14.27;;
11699;SDS011;5906;51.660;6.674;2023-10-13T02:30:57;34.27;;;14.93;;
11699;SDS011;5906;51.660;6.674;2023-10-13T02:33:29;26.57;;;14.40;;
11699;SDS011;5906;51.660;6.674;2023-10-13T02:35:57;28.63;;;15.03;;
11699;SDS011;5906;51.660;6.674;2023-10-13T02:38:25;28.60;;;14.67;;
11699;SDS011;5906;51.660;6.674;2023-10-13T02:41:12;22.30;;;14.73;;
11699;SDS011;5906;51.660;6.674;2023-10-13T02:43:55;21.30;;;13.73;;
11699;SDS011;5906;51.660;6.674;2023-10-13T02:46:23;25.60;;;14.07;;
11699;SDS011;5906;51.660;6.674;2023-10-13T02:48:55;25.33;;;13.40;;
11699;SDS011;5906;51.660;6.674;2023-10-13T02:51:24;30.97;;;14.60;;
11699;SDS011;5906;51.660;6.674;2023-10-13T02:54:03;21.13;;;13.83;;
11699;SDS011;5906;51.660;6.674;2023-10-13T02:56:37;21.77;;;14.10;;
11699;SDS011;5906;51.660;6.674;2023-10-13T02:59:14;26.60;;;13.30;;
11699;SDS011;5906;51.660;6.674;2023-10-13T03:01:41;22.17;;;13.13;;
11699;SDS011;5906;51.660;6.674;2023-10-13T03:04:08;29.40;;;13.43;;
11699;SDS011;5906;51.660;6.674;2023-10-13T03:06:35;23.53;;;13.27;;
11699;SDS011;5906;51.660;6.674;2023-10-13T03:09:07;22.90;;;13.40;;
11699;SDS011;5906;51.660;6.674;2023-10-13T03:11:41;23.63;;;14.40;;
11699;SDS011;5906;51.660;6.674;2023-10-13T03:14:15;19.53;;;12.10;;
11699;SDS011;5906;51.660;6.674;2023-10-13T03:16:51;24.53;;;13.90;;
11699;SDS011;5906;51.660;6.674;2023-10-13T03:19:19;22.93;;;14.27;;
11699;SDS011;5906;51.660;6.674;2023-10-13T03:21:47;25.97;;;13.90;;
11699;SDS011;5906;51.660;6.674;2023-10-13T03:24:30;34.10;;;13.53;;
11699;SDS011;5906;51.660;6.674;2023-10-13T03:27:03;33.57;;;13.67;;
11699;SDS011;5906;51.660;6.674;2023-10-13T03:29:38;20.77;;;13.13;;
11699;SDS011;5906;51.660;6.674;2023-10-13T03:32:13;25.27;;;13.67;;
11699;SDS011;5906;51.660;6.674;2023-10-13T03:34:44;24.80;;;13.80;;
11699;SDS011;5906;51.660;6.674;2023-10-13T03:37:20;21.67;;;12.90;;
11699;SDS011;5906;51.660;6.674;2023-10-13T03:42:46;23.33;;;12.93;;
11699;SDS011;5906;51.660;6.674;2023-10-13T03:45:34;26.17;;;13.87;;
11699;SDS011;5906;51.660;6.674;2023-10-13T03:50:43;26.70;;;14.50;;
11699;SDS011;5906;51.660;6.674;2023-10-13T03:53:14;28.43;;;14.50;;
11699;SDS011;5906;51.660;6.674;2023-10-13T03:55:41;31.70;;;15.40;;
11699;SDS011;5906;51.660;6.674;2023-10-13T03:58:16;24.30;;;13.73;;
11699;SDS011;5906;51.660;6.674;2023-10-13T04:00:45;21.97;;;13.60;;
11699;SDS011;5906;51.660;6.674;2023-10-13T04:03:12;27.27;;;14.47;;
11699;SDS011;5906;51.660;6.674;2023-10-13T04:05:44;26.50;;;13.60;;
11699;SDS011;5906;51.660;6.674;2023-10-13T04:08:27;20.53;;;12.97;;
11699;SDS011;5906;51.660;6.674;2023-10-13T04:10:55;28.23;;;14.40;;
11699;SDS011;5906;51.660;6.674;2023-10-13T04:13:23;32.80;;;14.47;;
11699;SDS011;5906;51.660;6.674;2023-10-13T04:16:09;22.30;;;13.33;;
11699;SDS011;5906;51.660;6.674;2023-10-13T04:18:49;20.90;;;13.37;;
11699;SDS011;5906;51.660;6.674;2023-10-13T04:21:36;20.60;;;12.63;;
11699;SDS011;5906;51.660;6.674;2023-10-13T04:24:06;22.27;;;12.83;;
11699;SDS011;5906;51.660;6.674;2023-10-13T04:26:45;23.60;;;13.60;;
11699;SDS011;5906;51.660;6.674;2023-10-13T04:29:32;24.67;;;14.10;;
11699;SDS011;5906;51.660;6.674;2023-10-13T04:32:18;23.73;;;13.43;;
11699;SDS011;5906;51.660;6.674;2023-10-13T04:35:04;28.50;;;14.17;;
11699;SDS011;5906;51.660;6.674;2023-10-13T04:37:37;28.80;;;15.43;;
11699;SDS011;5906;51.660;6.674;2023-10-13T04:40:19;28.07;;;16.30;;
11699;SDS011;5906;51.660;6.674;2023-10-13T04:42:53;30.00;;;17.60;;
11699;SDS011;5906;51.660;6.674;2023-10-13T04:45:23;32.93;;;16.63;;
11699;SDS011;5906;51.660;6.674;2023-10-13T04:48:00;48.83;;;17.50;;
11699;SDS011;5906;51.660;6.674;2023-10-13T04:50:46;30.03;;;16.43;;
11699;SDS011;5906;51.660;6.674;2023-10-13T04:53:17;26.60;;;16.00;;
11699;SDS011;5906;51.660;6.674;2023-10-13T04:56:08;31.37;;;16.23;;
11699;SDS011;5906;51.660;6.674;2023-10-13T04:58:56;25.20;;;15.10;;
11699;SDS011;5906;51.660;6.674;2023-10-13T05:01:45;32.80;;;15.90;;
11699;SDS011;5906;51.660;6.674;2023-10-13T05:04:32;34.40;;;16.47;;
11699;SDS011;5906;51.660;6.674;2023-10-13T05:07:23;28.20;;;15.13;;
11699;SDS011;5906;51.660;6.674;2023-10-13T05:10:14;25.50;;;15.57;;
11699;SDS011;5906;51.660;6.674;2023-10-13T05:13:00;26.37;;;15.37;;
11699;SDS011;5906;51.660;6.674;2023-10-13T05:15:47;30.03;;;16.10;;
11699;SDS011;5906;51.660;6.674;2023-10-13T05:18:33;23.50;;;14.13;;
11699;SDS011;5906;51.660;6.674;2023-10-13T05:21:19;27.13;;;15.47;;
11699;SDS011;5906;51.660;6.674;2023-10-13T05:24:06;31.30;;;16.40;;
11699;SDS011;5906;51.660;6.674;2023-10-13T05:26:55;28.10;;;14.97;;
11699;SDS011;5906;51.660;6.674;2023-10-13T05:29:41;31.53;;;14.63;;
11699;SDS011;5906;51.660;6.674;2023-10-13T05:32:29;28.43;;;15.20;;
11699;SDS011;5906;51.660;6.674;2023-10-13T05:35:15;36.37;;;14.80;;
11699;SDS011;5906;51.660;6.674;2023-10-13T05:38:02;38.93;;;15.27;;
11699;SDS011;5906;51.660;6.674;2023-10-13T05:41:11;24.40;;;13.30;;
11699;SDS011;5906;51.660;6.674;2023-10-13T05:43:57;27.10;;;12.07;;
11699;SDS011;5906;51.660;6.674;2023-10-13T05:46:43;17.03;;;11.30;;
11699;SDS011;5906;51.660;6.674;2023-10-13T05:49:33;23.27;;;13.33;;
11699;SDS011;5906;51.660;6.674;2023-10-13T05:52:29;20.27;;;11.87;;
11699;SDS011;5906;51.660;6.674;2023-10-13T05:55:15;24.57;;;12.80;;
11699;SDS011;5906;51.660;6.674;2023-10-13T05:58:03;22.13;;;13.07;;
11699;SDS011;5906;51.660;6.674;2023-10-13T06:00:49;26.47;;;13.33;;
11699;SDS011;5906;51.660;6.674;2023-10-13T06:03:35;18.57;;;12.00;;
11699;SDS011;5906;51.660;6.674;2023-10-13T06:06:21;19.83;;;11.53;;
11699;SDS011;5906;51.660;6.674;2023-10-13T06:09:09;18.57;;;10.50;;
11699;SDS011;5906;51.660;6.674;2023-10-13T06:11:55;17.17;;;11.00;;
11699;SDS011;5906;51.660;6.674;2023-10-13T06:14:45;20.03;;;10.43;;
11699;SDS011;5906;51.660;6.674;2023-10-13T06:17:34;16.83;;;9.87;;
11699;SDS011;5906;51.660;6.674;2023-10-13T06:20:22;17.03;;;10.17;;
11699;SDS011;5906;51.660;6.674;2023-10-13T06:23:08;23.07;;;10.73;;
11699;SDS011;5906;51.660;6.674;2023-10-13T06:25:57;11.67;;;9.53;;
11699;SDS011;5906;51.660;6.674;2023-10-13T06:28:44;15.50;;;9.70;;
11699;SDS011;5906;51.660;6.674;2023-10-13T06:31:12;17.60;;;10.00;;
11699;SDS011;5906;51.660;6.674;2023-10-13T06:33:50;18.77;;;9.83;;
11699;SDS011;5906;51.660;6.674;2023-10-13T06:36:17;14.73;;;9.87;;
11699;SDS011;5906;51.660;6.674;2023-10-13T06:38:44;19.30;;;9.47;;
11699;SDS011;5906;51.660;6.674;2023-10-13T06:41:23;14.53;;;9.17;;
11699;SDS011;5906;51.660;6.674;2023-10-13T06:44:00;18.23;;;9.40;;
11699;SDS011;5906;51.660;6.674;2023-10-13T06:46:42;19.40;;;9.13;;
11699;SDS011;5906;51.660;6.674;2023-10-13T06:49:11;14.30;;;8.53;;
11699;SDS011;5906;51.660;6.674;2023-10-13T06:51:40;12.67;;;7.60;;
11699;SDS011;5906;51.660;6.674;2023-10-13T06:54:09;12.70;;;7.87;;
11699;SDS011;5906;51.660;6.674;2023-10-13T06:56:48;18.03;;;8.43;;
11699;SDS011;5906;51.660;6.674;2023-10-13T06:59:20;16.33;;;8.47;;
11699;SDS011;5906;51.660;6.674;2023-10-13T07:01:55;16.07;;;8.43;;
11699;SDS011;5906;51.660;6.674;2023-10-13T07:04:51;13.43;;;7.60;;
11699;SDS011;5906;51.660;6.674;2023-10-13T07:07:24;30.07;;;8.37;;
11699;SDS011;5906;51.660;6.674;2023-10-13T07:09:52;17.30;;;8.70;;
11699;SDS011;5906;51.660;6.674;2023-10-13T07:12:27;21.67;;;8.03;;
11699;SDS011;5906;51.660;6.674;2023-10-13T07:14:59;31.20;;;8.13;;
11699;SDS011;5906;51.660;6.674;2023-10-13T07:17:30;21.27;;;8.20;;
11699;SDS011;5906;51.660;6.674;2023-10-13T07:20:06;18.60;;;7.83;;
11699;SDS011;5906;51.660;6.674;2023-10-13T07:22:52;16.23;;;7.40;;
11699;SDS011;5906;51.660;6.674;2023-10-13T07:25:33;14.13;;;7.27;;
11699;SDS011;5906;51.660;6.674;2023-10-13T07:28:04;19.03;;;7.30;;
11699;SDS011;5906;51.660;6.674;2023-10-13T07:30:36;24.80;;;8.20;;
11699;SDS011;5906;51.660;6.674;2023-10-13T07:33:28;17.37;;;7.30;;
11699;SDS011;5906;51.660;6.674;2023-10-13T07:36:01;28.20;;;7.83;;
11699;SDS011;5906;51.660;6.674;2023-10-13T07:38:42;18.40;;;6.63;;
11699;SDS011;5906;51.660;6.674;2023-10-13T07:41:29;17.33;;;6.47;;
11699;SDS011;5906;51.660;6.674;2023-10-13T07:44:00;12.43;;;6.27;;
11699;SDS011;5906;51.660;6.674;2023-10-13T07:46:33;15.60;;;6.47;;
11699;SDS011;5906;51.660;6.674;2023-10-13T07:49:02;17.00;;;6.93;;
11699;SDS011;5906;51.660;6.674;2023-10-13T07:51:36;15.90;;;6.77;;
11699;SDS011;5906;51.660;6.674;2023-10-13T07:54:17;16.53;;;7.40;;
11699;SDS011;5906;51.660;6.674;2023-10-13T07:56:51;14.03;;;6.40;;
11699;SDS011;5906;51.660;6.674;2023-10-13T07:59:22;19.00;;;7.10;;
11699;SDS011;5906;51.660;6.674;2023-10-13T08:01:50;14.23;;;6.30;;
11699;SDS011;5906;51.660;6.674;2023-10-13T08:04:39;15.43;;;6.57;;
11699;SDS011;5906;51.660;6.674;2023-10-13T08:07:07;15.90;;;6.43;;
11699;SDS011;5906;51.660;6.674;2023-10-13T08:09:41;19.57;;;7.90;;
11699;SDS011;5906;51.660;6.674;2023-10-13T08:12:10;16.90;;;7.17;;
11699;SDS011;5906;51.660;6.674;2023-10-13T08:14:39;22.70;;;7.30;;
11699;SDS011;5906;51.660;6.674;2023-10-13T08:17:08;22.17;;;7.30;;
11699;SDS011;5906;51.660;6.674;2023-10-13T08:19:39;24.30;;;8.10;;
11699;SDS011;5906;51.660;6.674;2023-10-13T08:22:20;24.13;;;7.30;;
11699;SDS011;5906;51.660;6.674;2023-10-13T08:24:52;20.50;;;8.33;;
11699;SDS011;5906;51.660;6.674;2023-10-13T08:27:20;18.90;;;7.50;;
11699;SDS011;5906;51.660;6.674;2023-10-13T08:30:01;12.33;;;6.20;;
11699;SDS011;5906;51.660;6.674;2023-10-13T08:32:48;13.70;;;7.63;;
11699;SDS011;5906;51.660;6.674;2023-10-13T08:35:23;16.93;;;7.70;;
11699;SDS011;5906;51.660;6.674;2023-10-13T08:37:56;12.73;;;7.53;;
11699;SDS011;5906;51.660;6.674;2023-10-13T08:40:48;14.10;;;7.40;;
11699;SDS011;5906;51.660;6.674;2023-10-13T08:43:36;17.43;;;7.83;;
11699;SDS011;5906;51.660;6.674;2023-10-13T08:46:11;19.80;;;7.40;;
11699;SDS011;5906;51.660;6.674;2023-10-13T08:49:07;15.20;;;7.27;;
11699;SDS011;5906;51.660;6.674;2023-10-13T08:51:41;19.90;;;7.33;;
11699;SDS011;5906;51.660;6.674;2023-10-13T08:54:16;15.27;;;7.43;;
11699;SDS011;5906;51.660;6.674;2023-10-13T08:57:05;19.47;;;7.30;;
11699;SDS011;5906;51.660;6.674;2023-10-13T08:59:52;17.97;;;8.10;;
11699;SDS011;5906;51.660;6.674;2023-10-13T09:02:22;30.97;;;7.50;;
11699;SDS011;5906;51.660;6.674;2023-10-13T09:05:10;20.83;;;6.90;;
11699;SDS011;5906;51.660;6.674;2023-10-13T09:07:58;19.67;;;7.03;;
11699;SDS011;5906;51.660;6.674;2023-10-13T09:10:35;22.57;;;6.53;;
11699;SDS011;5906;51.660;6.674;2023-10-13T09:13:35;15.77;;;7.27;;
11699;SDS011;5906;51.660;6.674;2023-10-13T09:16:13;13.20;;;5.97;;
11699;SDS011;5906;51.660;6.674;2023-10-13T09:19:12;19.67;;;7.00;;
11699;SDS011;5906;51.660;6.674;2023-10-13T09:21:41;18.57;;;7.60;;
11699;SDS011;5906;51.660;6.674;2023-10-13T09:24:09;13.30;;;5.87;;
11699;SDS011;5906;51.660;6.674;2023-10-13T09:26:49;19.93;;;5.97;;
11699;SDS011;5906;51.660;6.674;2023-10-13T09:29:20;16.53;;;6.60;;
11699;SDS011;5906;51.660;6.674;2023-10-13T09:31:49;14.90;;;5.30;;
11699;SDS011;5906;51.660;6.674;2023-10-13T09:34:31;13.73;;;6.47;;
11699;SDS011;5906;51.660;6.674;2023-10-13T09:37:02;13.43;;;6.30;;
11699;SDS011;5906;51.660;6.674;2023-10-13T09:39:30;13.80;;;6.40;;
11699;SDS011;5906;51.660;6.674;2023-10-13T09:42:12;22.43;;;5.87;;
11699;SDS011;5906;51.660;6.674;2023-10-13T09:44:43;17.80;;;6.60;;
11699;SDS011;5906;51.660;6.674;2023-10-13T09:47:20;12.10;;;6.47;;
11699;SDS011;5906;51.660;6.674;2023-10-13T09:50:07;16.10;;;6.37;;
11699;SDS011;5906;51.660;6.674;2023-10-13T09:52:50;23.50;;;6.67;;
11699;SDS011;5906;51.660;6.674;2023-10-13T09:55:21;19.50;;;6.63;;
11699;SDS011;5906;51.660;6.674;2023-10-13T09:57:56;13.53;;;6.80;;
11699;SDS011;5906;51.660;6.674;2023-10-13T10:00:43;12.03;;;5.73;;
11699;SDS011;5906;51.660;6.674;2023-10-13T10:03:10;15.13;;;5.90;;
11699;SDS011;5906;51.660;6.674;2023-10-13T10:05:59;25.93;;;7.30;;
11699;SDS011;5906;51.660;6.674;2023-10-13T10:08:30;11.27;;;5.70;;
11699;SDS011;5906;51.660;6.674;2023-10-13T10:16:37;13.47;;;6.47;;
11699;SDS011;5906;51.660;6.674;2023-10-13T10:19:15;18.03;;;5.90;;
11699;SDS011;5906;51.660;6.674;2023-10-13T10:21:42;12.17;;;6.50;;
11699;SDS011;5906;51.660;6.674;2023-10-13T10:24:16;17.87;;;6.67;;
11699;SDS011;5906;51.660;6.674;2023-10-13T10:26:56;21.83;;;6.10;;
11699;SDS011;5906;51.660;6.674;2023-10-13T10:29:23;16.60;;;6.87;;
11699;SDS011;5906;51.660;6.674;2023-10-13T10:31:50;17.43;;;6.00;;
11699;SDS011;5906;51.660;6.674;2023-10-13T10:34:17;19.53;;;6.50;;
11699;SDS011;5906;51.660;6.674;2023-10-13T10:36:52;13.10;;;6.30;;
11699;SDS011;5906;51.660;6.674;2023-10-13T10:39:31;14.40;;;5.90;;
11699;SDS011;5906;51.660;6.674;2023-10-13T10:42:10;12.30;;;7.07;;
11699;SDS011;5906;51.660;6.674;2023-10-13T10:44:42;19.80;;;6.67;;
11699;SDS011;5906;51.660;6.674;2023-10-13T10:47:14;13.53;;;6.27;;
11699;SDS011;5906;51.660;6.674;2023-10-13T10:49:58;30.37;;;6.63;;
11699;SDS011;5906;51.660;6.674;2023-10-13T10:52:26;14.10;;;5.83;;
11699;SDS011;5906;51.660;6.674;2023-10-13T10:55:02;18.50;;;6.73;;
11699;SDS011;5906;51.660;6.674;2023-10-13T10:57:39;14.77;;;6.90;;
11699;SDS011;5906;51.660;6.674;2023-10-13T11:00:28;19.53;;;7.00;;
11699;SDS011;5906;51.660;6.674;2023-10-13T11:03:08;13.37;;;6.40;;
11699;SDS011;5906;51.660;6.674;2023-10-13T11:05:47;13.90;;;6.40;;
11699;SDS011;5906;51.660;6.674;2023-10-13T11:08:23;19.53;;;6.20;;
11699;SDS011;5906;51.660;6.674;2023-10-13T11:11:00;21.23;;;7.40;;
11699;SDS011;5906;51.660;6.674;2023-10-13T11:13:38;20.93;;;6.97;;
11699;SDS011;5906;51.660;6.674;2023-10-13T11:16:21;11.90;;;7.40;;
11699;SDS011;5906;51.660;6.674;2023-10-13T11:19:03;14.23;;;6.77;;
11699;SDS011;5906;51.660;6.674;2023-10-13T11:21:33;19.30;;;7.27;;
11699;SDS011;5906;51.660;6.674;2023-10-13T11:24:03;16.83;;;7.77;;
11699;SDS011;5906;51.660;6.674;2023-10-13T11:26:35;16.73;;;6.70;;
11699;SDS011;5906;51.660;6.674;2023-10-13T11:29:19;11.43;;;6.70;;
11699;SDS011;5906;51.660;6.674;2023-10-13T11:32:00;13.60;;;7.50;;
11699;SDS011;5906;51.660;6.674;2023-10-13T11:34:29;19.43;;;7.17;;
11699;SDS011;5906;51.660;6.674;2023-10-13T11:37:07;15.33;;;6.90;;
11699;SDS011;5906;51.660;6.674;2023-10-13T11:39:52;18.23;;;7.00;;
11699;SDS011;5906;51.660;6.674;2023-10-13T11:42:19;17.33;;;6.83;;
11699;SDS011;5906;51.660;6.674;2023-10-13T11:44:46;11.93;;;6.17;;
11699;SDS011;5906;51.660;6.674;2023-10-13T11:47:27;15.10;;;7.20;;
11699;SDS011;5906;51.660;6.674;2023-10-13T11:50:15;22.70;;;7.10;;
11699;SDS011;5906;51.660;6.674;2023-10-13T11:52:58;19.47;;;7.20;;
11699;SDS011;5906;51.660;6.674;2023-10-13T11:55:26;14.33;;;7.17;;
11699;SDS011;5906;51.660;6.674;2023-10-13T11:57:53;20.53;;;7.20;;
11699;SDS011;5906;51.660;6.674;2023-10-13T12:00:20;21.50;;;7.77;;
11699;SDS011;5906;51.660;6.674;2023-10-13T12:03:05;16.33;;;6.30;;
11699;SDS011;5906;51.660;6.674;2023-10-13T12:05:52;17.47;;;6.70;;
11699;SDS011;5906;51.660;6.674;2023-10-13T12:08:37;19.97;;;6.73;;
11699;SDS011;5906;51.660;6.674;2023-10-13T12:11:15;13.63;;;6.33;;
11699;SDS011;5906;51.660;6.674;2023-10-13T12:13:57;16.93;;;6.17;;
11699;SDS011;5906;51.660;6.674;2023-10-13T12:16:24;16.40;;;6.27;;
11699;SDS011;5906;51.660;6.674;2023-10-13T12:19:01;17.13;;;6.00;;
11699;SDS011;5906;51.660;6.674;2023-10-13T12:21:27;15.43;;;5.47;;
11699;SDS011;5906;51.660;6.674;2023-10-13T12:23:55;17.83;;;6.27;;
11699;SDS011;5906;51.660;6.674;2023-10-13T12:26:22;31.57;;;7.87;;
11699;SDS011;5906;51.660;6.674;2023-10-13T12:28:59;26.67;;;7.07;;
11699;SDS011;5906;51.660;6.674;2023-10-13T12:31:32;20.40;;;5.87;;
11699;SDS011;5906;51.660;6.674;2023-10-13T12:34:05;19.90;;;6.47;;
11699;SDS011;5906;51.660;6.674;2023-10-13T12:36:43;18.27;;;6.53;;
11699;SDS011;5906;51.660;6.674;2023-10-13T12:39:19;14.80;;;6.43;;
11699;SDS011;5906;51.660;6.674;2023-10-13T12:42:05;17.60;;;6.67;;
11699;SDS011;5906;51.660;6.674;2023-10-13T12:44:51;28.53;;;6.73;;
11699;SDS011;5906;51.660;6.674;2023-10-13T12:47:36;28.97;;;6.83;;
11699;SDS011;5906;51.660;6.674;2023-10-13T12:50:22;21.73;;;6.53;;
11699;SDS011;5906;51.660;6.674;2023-10-13T12:53:10;14.10;;;6.17;;
11699;SDS011;5906;51.660;6.674;2023-10-13T12:55:40;30.30;;;5.77;;
11699;SDS011;5906;51.660;6.674;2023-10-13T12:58:07;24.93;;;6.70;;
11699;SDS011;5906;51.660;6.674;2023-10-13T13:00:34;20.20;;;6.70;;
11699;SDS011;5906;51.660;6.674;2023-10-13T13:03:02;26.20;;;7.40;;
11699;SDS011;5906;51.660;6.674;2023-10-13T13:05:38;20.87;;;7.07;;
11699;SDS011;5906;51.660;6.674;2023-10-13T13:08:11;20.60;;;6.67;;
11699;SDS011;5906;51.660;6.674;2023-10-13T13:10:45;19.77;;;6.27;;
11699;SDS011;5906;51.660;6.674;2023-10-13T13:13:14;16.70;;;6.87;;
11699;SDS011;5906;51.660;6.674;2023-10-13T13:15:43;34.57;;;7.43;;
11699;SDS011;5906;51.660;6.674;2023-10-13T13:18:10;19.57;;;6.60;;
11699;SDS011;5906;51.660;6.674;2023-10-13T13:20:38;23.57;;;6.33;;
11699;SDS011;5906;51.660;6.674;2023-10-13T13:23:21;19.63;;;7.00;;
11699;SDS011;5906;51.660;6.674;2023-10-13T13:25:53;25.07;;;7.47;;
11699;SDS011;5906;51.660;6.674;2023-10-13T13:28:23;21.23;;;7.07;;
11699;SDS011;5906;51.660;6.674;2023-10-13T13:30:50;24.27;;;6.30;;
11699;SDS011;5906;51.660;6.674;2023-10-13T13:33:20;14.70;;;5.70;;
11699;SDS011;5906;51.660;6.674;2023-10-13T13:35:55;17.53;;;6.73;;
11699;SDS011;5906;51.660;6.674;2023-10-13T13:38:26;25.17;;;6.57;;
11699;SDS011;5906;51.660;6.674;2023-10-13T13:40:59;31.13;;;8.37;;
11699;SDS011;5906;51.660;6.674;2023-10-13T13:43:29;15.23;;;6.43;;
11699;SDS011;5906;51.660;6.674;2023-10-13T13:46:07;19.20;;;6.47;;
11699;SDS011;5906;51.660;6.674;2023-10-13T13:48:37;12.03;;;5.30;;
11699;SDS011;5906;51.660;6.674;2023-10-13T13:51:06;24.97;;;7.00;;
11699;SDS011;5906;51.660;6.674;2023-10-13T13:53:41;25.37;;;7.27;;
11699;SDS011;5906;51.660;6.674;2023-10-13T13:56:12;26.97;;;6.73;;
11699;SDS011;5906;51.660;6.674;2023-10-13T13:58:45;21.83;;;6.10;;
11699;SDS011;5906;51.660;6.674;2023-10-13T14:01:14;20.53;;;6.70;;
11699;SDS011;5906;51.660;6.674;2023-10-13T14:03:42;27.40;;;7.30;;
11699;SDS011;5906;51.660;6.674;2023-10-13T14:06:14;26.23;;;6.70;;
11699;SDS011;5906;51.660;6.674;2023-10-13T14:09:01;18.40;;;6.60;;
11699;SDS011;5906;51.660;6.674;2023-10-13T14:11:41;19.50;;;5.50;;
11699;SDS011;5906;51.660;6.674;2023-10-13T14:14:27;22.17;;;5.70;;
11699;SDS011;5906;51.660;6.674;2023-10-13T14:16:54;18.57;;;5.73;;
11699;SDS011;5906;51.660;6.674;2023-10-13T14:19:34;18.20;;;5.70;;
11699;SDS011;5906;51.660;6.674;2023-10-13T14:22:07;19.60;;;6.10;;
11699;SDS011;5906;51.660;6.674;2023-10-13T14:24:39;17.20;;;5.53;;
11699;SDS011;5906;51.660;6.674;2023-10-13T14:27:17;15.87;;;6.53;;
11699;SDS011;5906;51.660;6.674;2023-10-13T14:29:45;20.10;;;6.30;;
11699;SDS011;5906;51.660;6.674;2023-10-13T14:32:13;24.30;;;6.63;;
11699;SDS011;5906;51.660;6.674;2023-10-13T14:34:44;20.40;;;6.47;;
11699;SDS011;5906;51.660;6.674;2023-10-13T14:37:13;15.17;;;6.03;;
11699;SDS011;5906;51.660;6.674;2023-10-13T14:39:40;22.83;;;5.90;;
11699;SDS011;5906;51.660;6.674;2023-10-13T14:42:08;17.07;;;6.40;;
11699;SDS011;5906;51.660;6.674;2023-10-13T14:44:35;19.37;;;6.20;;
11699;SDS011;5906;51.660;6.674;2023-10-13T14:47:03;17.17;;;5.87;;
11699;SDS011;5906;51.660;6.674;2023-10-13T14:49:35;14.20;;;6.17;;
11699;SDS011;5906;51.660;6.674;2023-10-13T14:52:02;20.73;;;6.90;;
11699;SDS011;5906;51.660;6.674;2023-10-13T14:54:29;18.83;;;6.00;;
11699;SDS011;5906;51.660;6.674;2023-10-13T14:57:00;27.33;;;7.03;;
11699;SDS011;5906;51.660;6.674;2023-10-13T14:59:30;17.50;;;6.80;;
11699;SDS011;5906;51.660;6.674;2023-10-13T15:02:00;11.50;;;5.77;;
11699;SDS011;5906;51.660;6.674;2023-10-13T15:04:28;16.07;;;6.40;;
11699;SDS011;5906;51.660;6.674;2023-10-13T15:07:00;15.33;;;6.17;;
11699;SDS011;5906;51.660;6.674;2023-10-13T15:09:28;17.40;;;6.00;;
11699;SDS011;5906;51.660;6.674;2023-10-13T15:11:56;25.57;;;6.20;;
11699;SDS011;5906;51.660;6.674;2023-10-13T15:14:23;27.73;;;6.60;;
11699;SDS011;5906;51.660;6.674;2023-10-13T15:16:50;27.70;;;6.50;;
11699;SDS011;5906;51.660;6.674;2023-10-13T15:19:18;23.80;;;6.37;;
11699;SDS011;5906;51.660;6.674;2023-10-13T15:21:46;25.80;;;6.50;;
11699;SDS011;5906;51.660;6.674;2023-10-13T15:24:17;25.33;;;6.80;;
11699;SDS011;5906;51.660;6.674;2023-10-13T15:26:51;18.47;;;6.23;;
11699;SDS011;5906;51.660;6.674;2023-10-13T15:29:23;16.97;;;6.53;;
11699;SDS011;5906;51.660;6.674;2023-10-13T15:32:05;10.97;;;5.50;;
11699;SDS011;5906;51.660;6.674;2023-10-13T15:34:53;18.93;;;5.43;;
11699;SDS011;5906;51.660;6.674;2023-10-13T15:37:22;20.07;;;5.90;;
11699;SDS011;5906;51.660;6.674;2023-10-13T15:39:52;16.50;;;6.00;;
11699;SDS011;5906;51.660;6.674;2023-10-13T15:42:20;16.53;;;5.80;;
11699;SDS011;5906;51.660;6.674;2023-10-13T15:44:47;14.20;;;5.60;;